createdAt,value
2019-04-05T00:02:28.023Z,13.78
2019-04-05T00:05:05.540Z,17.70
2019-04-05T00:07:43.363Z,13.70
2019-04-05T00:10:21.484Z,18.30
2019-04-05T00:12:59.253Z,15.32
2019-04-05T00:15:38.090Z,23.40
2019-04-05T00:18:13.074Z,16.90
2019-04-05T00:20:50.703Z,21.02
2019-04-05T00:23:28.327Z,23.42
2019-04-05T00:26:05.852Z,33.23
2019-04-05T00:28:43.376Z,35.58
2019-04-05T00:31:21.228Z,13.20
2019-04-05T00:33:58.961Z,14.20
2019-04-05T00:36:36.806Z,8.03
2019-04-05T00:39:15.963Z,11.83
2019-04-05T00:41:53.651Z,11.05
2019-04-05T00:44:31.386Z,9.80
2019-04-05T00:47:08.948Z,14.65
2019-04-05T00:49:46.591Z,15.65
2019-04-05T00:52:24.262Z,13.78
2019-04-05T00:55:01.975Z,17.70
2019-04-05T00:57:39.550Z,17.98
2019-04-05T01:00:18.287Z,11.85
2019-04-05T01:02:56.095Z,17.85
2019-04-05T01:05:33.851Z,17.45
2019-04-05T01:08:11.616Z,14.98
2019-04-05T01:10:49.335Z,15.70
2019-04-05T01:13:26.932Z,12.50
2019-04-05T01:16:04.612Z,13.25
2019-04-05T01:18:42.207Z,11.78
2019-04-05T01:21:22.586Z,12.53
2019-04-05T01:24:07.394Z,16.07
2019-04-05T01:26:49.919Z,13.98
2019-04-05T01:29:28.114Z,12.10
2019-04-05T01:32:05.936Z,10.93
2019-04-05T01:34:43.725Z,13.20
2019-04-05T01:37:21.336Z,13.30
2019-04-05T01:39:59.025Z,17.48
2019-04-05T01:42:37.051Z,16.73
2019-04-05T01:45:15.421Z,16.00
2019-04-05T01:47:53.080Z,12.23
2019-04-05T01:50:30.843Z,11.90
2019-04-05T01:53:08.933Z,14.03
2019-04-05T01:55:47.960Z,14.28
2019-04-05T01:58:25.659Z,13.18
2019-04-05T02:01:03.342Z,13.48
2019-04-05T02:03:38.607Z,15.88
2019-04-05T02:06:16.280Z,17.45
2019-04-05T02:08:54.212Z,13.98
2019-04-05T02:11:32.074Z,24.37
2019-04-05T02:14:07.369Z,14.28
2019-04-05T02:16:42.828Z,14.73
2019-04-05T02:19:18.311Z,16.57
2019-04-05T02:21:53.405Z,19.32
2019-04-05T02:24:31.319Z,27.50
2019-04-05T02:27:09.204Z,15.15
2019-04-05T02:29:49.775Z,15.43
2019-04-05T02:32:27.643Z,13.00
2019-04-05T02:35:05.357Z,14.68
2019-04-05T02:37:40.705Z,14.93
2019-04-05T02:40:19.468Z,17.10
2019-04-05T02:42:59.353Z,13.38
2019-04-05T02:45:36.217Z,7.80
2019-04-05T02:48:15.594Z,14.60
2019-04-05T02:50:55.429Z,16.57
2019-04-05T02:53:35.270Z,11.33
2019-04-05T02:56:14.004Z,14.83
2019-04-05T02:58:52.410Z,19.12
2019-04-05T03:01:30.631Z,19.52
2019-04-05T03:04:08.924Z,19.95
2019-04-05T03:06:47.180Z,16.10
2019-04-05T03:09:25.032Z,10.25
2019-04-05T03:12:03.922Z,16.82
2019-04-05T03:14:42.741Z,13.80
2019-04-05T03:17:20.788Z,15.18
2019-04-05T03:20:00.297Z,17.85
2019-04-05T03:22:42.679Z,17.77
2019-04-05T03:25:20.391Z,16.50
2019-04-05T03:27:58.212Z,11.73
2019-04-05T03:30:33.636Z,18.87
2019-04-05T03:33:11.981Z,13.53
2019-04-05T03:35:47.342Z,15.83
2019-04-05T03:38:25.530Z,15.95
2019-04-05T03:41:03.475Z,11.75
2019-04-05T03:43:41.347Z,15.00
2019-04-05T03:46:19.390Z,21.23
2019-04-05T03:48:57.396Z,8.43
2019-04-05T03:51:35.864Z,14.30
2019-04-05T03:54:15.141Z,15.32
2019-04-05T03:56:52.790Z,17.02
2019-04-05T03:59:30.460Z,16.07
2019-04-05T04:02:08.223Z,12.37
2019-04-05T04:04:46.091Z,19.70
2019-04-05T04:07:23.946Z,20.02
2019-04-05T04:10:01.775Z,12.98
2019-04-05T04:12:39.639Z,30.60
2019-04-05T04:15:20.629Z,19.77
2019-04-05T04:17:56.911Z,14.78
2019-04-05T04:20:52.844Z,13.58
2019-04-05T04:23:33.074Z,16.75
2019-04-05T04:26:08.392Z,13.68
2019-04-05T04:28:43.543Z,21.62
2019-04-05T04:31:22.051Z,16.02
2019-04-05T04:33:57.203Z,15.65
2019-04-05T04:36:35.179Z,22.85
2019-04-05T04:39:10.986Z,23.65
2019-04-05T04:41:48.602Z,31.17
2019-04-05T04:44:26.474Z,12.68
2019-04-05T18:06:30.415Z,20.48
2019-04-05T18:09:05.585Z,23.20
2019-04-05T18:11:43.454Z,19.62
2019-04-05T18:14:21.305Z,19.92
2019-04-05T18:16:56.545Z,23.92
2019-04-05T18:19:34.013Z,20.68
2019-04-05T18:22:11.641Z,18.85
2019-04-05T18:24:49.338Z,21.62
2019-04-05T18:27:24.499Z,21.12
2019-04-05T18:30:01.911Z,20.80
2019-04-05T18:32:39.618Z,20.60
2019-04-05T18:35:17.588Z,19.65
2019-04-05T18:37:55.157Z,24.45
2019-04-05T18:40:39.895Z,20.85
2019-04-05T18:43:12.395Z,18.80
2019-04-05T18:45:50.032Z,21.75
2019-04-05T18:48:25.166Z,20.82
2019-04-05T18:51:02.989Z,21.25
2019-04-05T18:53:40.889Z,17.75
2019-04-05T18:56:18.455Z,16.82
2019-04-05T18:58:56.061Z,17.37
2019-04-05T19:01:33.989Z,18.90
2019-04-05T19:04:11.698Z,21.17
2019-04-05T19:06:46.817Z,20.62
2019-04-05T19:09:24.405Z,20.62
2019-04-05T19:12:04.023Z,23.35
2019-04-05T19:14:39.190Z,21.23
2019-04-05T19:17:23.709Z,18.60
2019-04-05T19:19:55.510Z,26.65
2019-04-05T19:22:33.185Z,22.37
2019-04-05T19:25:11.215Z,19.42
2019-04-05T19:27:46.369Z,19.98
2019-04-05T19:48:53.063Z,20.08
2019-04-05T19:51:30.779Z,21.37
2019-04-05T19:54:08.917Z,21.02
2019-04-05T19:56:46.662Z,21.07
2019-04-05T19:59:24.315Z,25.75
2019-04-05T20:02:02.041Z,23.90
2019-04-05T20:04:39.880Z,19.98
2019-04-05T20:07:17.656Z,24.43
2019-04-05T20:09:55.539Z,21.68
2019-04-05T20:12:33.324Z,22.95
2019-04-05T20:15:08.708Z,23.87
2019-04-05T20:17:43.808Z,24.75
2019-04-05T20:20:21.814Z,26.10
2019-04-05T20:22:59.540Z,24.77
2019-04-05T20:25:37.330Z,21.42
2019-04-05T20:28:12.616Z,25.95
2019-04-05T20:30:47.719Z,23.73
2019-04-05T20:33:25.168Z,26.42
2019-04-05T20:36:04.755Z,23.57
2019-04-05T20:38:42.461Z,21.93
2019-04-05T20:41:20.087Z,22.75
2019-04-05T20:43:58.308Z,22.90
2019-04-05T20:46:36.841Z,23.27
2019-04-05T20:49:14.527Z,24.50
2019-04-05T20:51:52.179Z,26.20
2019-04-05T20:54:30.062Z,23.20
2019-04-05T20:57:07.586Z,23.50
2019-04-05T20:59:45.374Z,29.30
2019-04-05T21:02:23.127Z,26.40
2019-04-05T21:05:00.935Z,24.47
2019-04-05T21:07:38.568Z,24.47
2019-04-05T21:10:14.735Z,24.07
2019-04-05T21:12:52.223Z,26.37
2019-04-05T21:15:29.971Z,22.90
2019-04-05T21:18:07.884Z,26.73
2019-04-05T21:20:43.340Z,30.20
2019-04-05T21:23:20.849Z,29.02
2019-04-05T21:25:56.047Z,27.55
2019-04-05T21:28:33.727Z,23.30
2019-04-05T21:31:11.533Z,26.42
2019-04-05T21:33:49.175Z,25.45
2019-04-05T21:36:27.539Z,24.00
2019-04-05T21:39:05.419Z,21.35
2019-04-05T21:41:43.119Z,20.95
2019-04-05T21:44:20.739Z,22.32
2019-04-05T21:46:58.607Z,23.67
2019-04-05T21:49:36.234Z,22.77
2019-04-05T21:52:14.440Z,26.95
2019-04-05T21:54:52.099Z,19.90
2019-04-05T21:57:29.687Z,22.07
2019-04-05T22:00:07.328Z,20.05
2019-04-05T22:02:45.282Z,24.65
2019-04-05T22:05:22.815Z,23.15
2019-04-05T22:08:00.339Z,22.50
2019-04-05T22:10:37.978Z,22.87
2019-04-05T22:13:15.663Z,23.35
2019-04-05T22:15:53.208Z,22.17
2019-04-05T22:18:30.754Z,23.25
2019-04-05T22:21:08.485Z,18.30
2019-04-05T22:23:46.989Z,20.10
2019-04-05T22:26:24.748Z,18.80
2019-04-05T22:29:03.909Z,17.07
2019-04-05T22:31:41.486Z,18.42
2019-04-05T22:34:19.220Z,19.42
2019-04-05T22:36:56.791Z,17.57
2019-04-05T22:39:34.502Z,20.27
2019-04-05T22:42:09.874Z,20.15
2019-04-05T22:44:45.269Z,17.67
2019-04-05T22:47:22.650Z,17.35
2019-04-05T22:49:57.817Z,16.60
2019-04-05T22:52:32.778Z,17.57
2019-04-05T22:55:11.997Z,16.90
2019-04-05T22:57:46.875Z,21.68
2019-04-05T23:00:22.139Z,14.83
2019-04-05T23:02:57.210Z,15.68
2019-04-05T23:05:35.059Z,16.12
2019-04-05T23:08:10.156Z,16.95
2019-04-05T23:10:46.406Z,18.05
2019-04-05T23:13:28.965Z,17.40
2019-04-05T23:16:07.989Z,15.90
2019-04-05T23:18:43.096Z,16.62
2019-04-05T23:21:20.663Z,15.18
2019-04-05T23:23:58.210Z,13.43
2019-04-05T23:26:35.839Z,15.05
2019-04-05T23:29:13.462Z,14.95
2019-04-05T23:31:51.073Z,16.30
2019-04-05T23:34:28.622Z,12.20
2019-04-05T23:37:06.284Z,16.12
2019-04-05T23:39:43.865Z,17.20
2019-04-05T23:42:21.427Z,14.25
2019-04-05T23:44:58.981Z,11.22
2019-04-05T23:47:37.016Z,14.33
2019-04-05T23:50:14.640Z,14.23
2019-04-05T23:52:52.238Z,11.03
2019-04-05T23:55:33.492Z,12.80
2019-04-05T23:58:08.523Z,11.90
